<?xml version="1.0" encoding="UTF-8" ?>
<gpx version="1.1" xmlns:xsi="http://www.w3.org/2001/XMLSchema-instance" 
    xmlns="http://www.topografix.com/GPX/1/1" 
    xsi:schemaLocation="http://www.topografix.com/GPX/1/1 http://www.topografix.com/GPX/1/1/gpx.xsd" 
    creator="Openrunner - https://www.openrunner.com" >	<trk>
						<name>14984147-Aux Pays des Epouvantails</name>
						<trkseg>
					<trkpt lat="45.653490" lon="4.379110">
						<ele>566</ele>
						<time>2022-06-18T08:29:39Z</time>
					</trkpt>
					<trkpt lat="45.653410" lon="4.379060">
						<ele>567</ele>
						<time>2022-06-18T08:29:51Z</time>
					</trkpt>
					<trkpt lat="45.653130" lon="4.377990">
						<ele>566</ele>
						<time>2022-06-18T08:31:37Z</time>
					</trkpt>
					<trkpt lat="45.652800" lon="4.376910">
						<ele>566</ele>
						<time>2022-06-18T08:33:27Z</time>
					</trkpt>
					<trkpt lat="45.652690" lon="4.376410">
						<ele>566</ele>
						<time>2022-06-18T08:34:16Z</time>
					</trkpt>
					<trkpt lat="45.652640" lon="4.376000">
						<ele>565</ele>
						<time>2022-06-18T08:34:55Z</time>
					</trkpt>
					<trkpt lat="45.652610" lon="4.375480">
						<ele>566</ele>
						<time>2022-06-18T08:35:44Z</time>
					</trkpt>
					<trkpt lat="45.652480" lon="4.374910">
						<ele>567</ele>
						<time>2022-06-18T08:36:39Z</time>
					</trkpt>
					<trkpt lat="45.652370" lon="4.374320">
						<ele>566</ele>
						<time>2022-06-18T08:37:36Z</time>
					</trkpt>
					<trkpt lat="45.652380" lon="4.374140">
						<ele>567</ele>
						<time>2022-06-18T08:37:53Z</time>
					</trkpt>
					<trkpt lat="45.652290" lon="4.373090">
						<ele>568</ele>
						<time>2022-06-18T08:39:32Z</time>
					</trkpt>
					<trkpt lat="45.652210" lon="4.372760">
						<ele>568</ele>
						<time>2022-06-18T08:40:05Z</time>
					</trkpt>
					<trkpt lat="45.652130" lon="4.372610">
						<ele>568</ele>
						<time>2022-06-18T08:40:22Z</time>
					</trkpt>
					<trkpt lat="45.652040" lon="4.372480">
						<ele>568</ele>
						<time>2022-06-18T08:40:39Z</time>
					</trkpt>
					<trkpt lat="45.651910" lon="4.372380">
						<ele>568</ele>
						<time>2022-06-18T08:40:59Z</time>
					</trkpt>
					<trkpt lat="45.651350" lon="4.372010">
						<ele>564</ele>
						<time>2022-06-18T08:42:21Z</time>
					</trkpt>
					<trkpt lat="45.651150" lon="4.371750">
						<ele>562</ele>
						<time>2022-06-18T08:42:57Z</time>
					</trkpt>
					<trkpt lat="45.651010" lon="4.371480">
						<ele>559</ele>
						<time>2022-06-18T08:43:29Z</time>
					</trkpt>
					<trkpt lat="45.650740" lon="4.370820">
						<ele>553</ele>
						<time>2022-06-18T08:44:40Z</time>
					</trkpt>
					<trkpt lat="45.650610" lon="4.370580">
						<ele>550</ele>
						<time>2022-06-18T08:45:08Z</time>
					</trkpt>
					<trkpt lat="45.650450" lon="4.370320">
						<ele>547</ele>
						<time>2022-06-18T08:45:41Z</time>
					</trkpt>
					<trkpt lat="45.650260" lon="4.370080">
						<ele>544</ele>
						<time>2022-06-18T08:46:14Z</time>
					</trkpt>
					<trkpt lat="45.650060" lon="4.369910">
						<ele>542</ele>
						<time>2022-06-18T08:46:45Z</time>
					</trkpt>
					<trkpt lat="45.649940" lon="4.369850">
						<ele>541</ele>
						<time>2022-06-18T08:47:02Z</time>
					</trkpt>
					<trkpt lat="45.649420" lon="4.369640">
						<ele>536</ele>
						<time>2022-06-18T08:48:15Z</time>
					</trkpt>
					<trkpt lat="45.649450" lon="4.369650">
						<ele>536</ele>
						<time>2022-06-18T08:48:19Z</time>
					</trkpt>
					<trkpt lat="45.649450" lon="4.369810">
						<ele>536</ele>
						<time>2022-06-18T08:48:34Z</time>
					</trkpt>
					<trkpt lat="45.649480" lon="4.370150">
						<ele>536</ele>
						<time>2022-06-18T08:49:06Z</time>
					</trkpt>
					<trkpt lat="45.649470" lon="4.370300">
						<ele>536</ele>
						<time>2022-06-18T08:49:20Z</time>
					</trkpt>
					<trkpt lat="45.649440" lon="4.370480">
						<ele>536</ele>
						<time>2022-06-18T08:49:37Z</time>
					</trkpt>
					<trkpt lat="45.649380" lon="4.370640">
						<ele>535</ele>
						<time>2022-06-18T08:49:54Z</time>
					</trkpt>
					<trkpt lat="45.649210" lon="4.370980">
						<ele>533</ele>
						<time>2022-06-18T08:50:33Z</time>
					</trkpt>
					<trkpt lat="45.649160" lon="4.371160">
						<ele>533</ele>
						<time>2022-06-18T08:50:51Z</time>
					</trkpt>
					<trkpt lat="45.649100" lon="4.371540">
						<ele>533</ele>
						<time>2022-06-18T08:51:27Z</time>
					</trkpt>
					<trkpt lat="45.649110" lon="4.371900">
						<ele>534</ele>
						<time>2022-06-18T08:52:01Z</time>
					</trkpt>
					<trkpt lat="45.649150" lon="4.372130">
						<ele>535</ele>
						<time>2022-06-18T08:52:23Z</time>
					</trkpt>
					<trkpt lat="45.649370" lon="4.373120">
						<ele>536</ele>
						<time>2022-06-18T08:54:00Z</time>
					</trkpt>
					<trkpt lat="45.649420" lon="4.373520">
						<ele>535</ele>
						<time>2022-06-18T08:54:38Z</time>
					</trkpt>
					<trkpt lat="45.649560" lon="4.374260">
						<ele>536</ele>
						<time>2022-06-18T08:55:49Z</time>
					</trkpt>
					<trkpt lat="45.649660" lon="4.374990">
						<ele>536</ele>
						<time>2022-06-18T08:56:59Z</time>
					</trkpt>
					<trkpt lat="45.649710" lon="4.375140">
						<ele>537</ele>
						<time>2022-06-18T08:57:14Z</time>
					</trkpt>
					<trkpt lat="45.649770" lon="4.375240">
						<ele>537</ele>
						<time>2022-06-18T08:57:26Z</time>
					</trkpt>
					<trkpt lat="45.650050" lon="4.375490">
						<ele>541</ele>
						<time>2022-06-18T08:58:11Z</time>
					</trkpt>
					<trkpt lat="45.650140" lon="4.375630">
						<ele>541</ele>
						<time>2022-06-18T08:58:28Z</time>
					</trkpt>
					<trkpt lat="45.650170" lon="4.375780">
						<ele>541</ele>
						<time>2022-06-18T08:58:43Z</time>
					</trkpt>
					<trkpt lat="45.650200" lon="4.376180">
						<ele>539</ele>
						<time>2022-06-18T08:59:20Z</time>
					</trkpt>
					<trkpt lat="45.650250" lon="4.376370">
						<ele>539</ele>
						<time>2022-06-18T08:59:39Z</time>
					</trkpt>
					<trkpt lat="45.650370" lon="4.376600">
						<ele>540</ele>
						<time>2022-06-18T09:00:06Z</time>
					</trkpt>
					<trkpt lat="45.650510" lon="4.376800">
						<ele>541</ele>
						<time>2022-06-18T09:00:32Z</time>
					</trkpt>
					<trkpt lat="45.650580" lon="4.377010">
						<ele>542</ele>
						<time>2022-06-18T09:00:54Z</time>
					</trkpt>
					<trkpt lat="45.650580" lon="4.377140">
						<ele>541</ele>
						<time>2022-06-18T09:01:06Z</time>
					</trkpt>
					<trkpt lat="45.650570" lon="4.377280">
						<ele>541</ele>
						<time>2022-06-18T09:01:19Z</time>
					</trkpt>
					<trkpt lat="45.650540" lon="4.377380">
						<ele>540</ele>
						<time>2022-06-18T09:01:30Z</time>
					</trkpt>
					<trkpt lat="45.650410" lon="4.377610">
						<ele>538</ele>
						<time>2022-06-18T09:01:57Z</time>
					</trkpt>
					<trkpt lat="45.650330" lon="4.377790">
						<ele>537</ele>
						<time>2022-06-18T09:02:17Z</time>
					</trkpt>
					<trkpt lat="45.650290" lon="4.378030">
						<ele>538</ele>
						<time>2022-06-18T09:02:40Z</time>
					</trkpt>
					<trkpt lat="45.650300" lon="4.378170">
						<ele>539</ele>
						<time>2022-06-18T09:02:53Z</time>
					</trkpt>
					<trkpt lat="45.650340" lon="4.378470">
						<ele>541</ele>
						<time>2022-06-18T09:03:22Z</time>
					</trkpt>
					<trkpt lat="45.650840" lon="4.380900">
						<ele>542</ele>
						<time>2022-06-18T09:07:18Z</time>
					</trkpt>
					<trkpt lat="45.650910" lon="4.381350">
						<ele>546</ele>
						<time>2022-06-18T09:08:01Z</time>
					</trkpt>
					<trkpt lat="45.650920" lon="4.381500">
						<ele>546</ele>
						<time>2022-06-18T09:08:15Z</time>
					</trkpt>
					<trkpt lat="45.650900" lon="4.381660">
						<ele>546</ele>
						<time>2022-06-18T09:08:30Z</time>
					</trkpt>
					<trkpt lat="45.650870" lon="4.381790">
						<ele>547</ele>
						<time>2022-06-18T09:08:43Z</time>
					</trkpt>
					<trkpt lat="45.650780" lon="4.382010">
						<ele>548</ele>
						<time>2022-06-18T09:09:07Z</time>
					</trkpt>
					<trkpt lat="45.650690" lon="4.382230">
						<ele>550</ele>
						<time>2022-06-18T09:09:31Z</time>
					</trkpt>
					<trkpt lat="45.650650" lon="4.382340">
						<ele>551</ele>
						<time>2022-06-18T09:09:42Z</time>
					</trkpt>
					<trkpt lat="45.650530" lon="4.382790">
						<ele>554</ele>
						<time>2022-06-18T09:10:27Z</time>
					</trkpt>
					<trkpt lat="45.650520" lon="4.382980">
						<ele>555</ele>
						<time>2022-06-18T09:10:45Z</time>
					</trkpt>
					<trkpt lat="45.650550" lon="4.383250">
						<ele>557</ele>
						<time>2022-06-18T09:11:10Z</time>
					</trkpt>
					<trkpt lat="45.650590" lon="4.383410">
						<ele>559</ele>
						<time>2022-06-18T09:11:26Z</time>
					</trkpt>
					<trkpt lat="45.650420" lon="4.384210">
						<ele>562</ele>
						<time>2022-06-18T09:12:44Z</time>
					</trkpt>
					<trkpt lat="45.650240" lon="4.384560">
						<ele>561</ele>
						<time>2022-06-18T09:13:25Z</time>
					</trkpt>
					<trkpt lat="45.650100" lon="4.385000">
						<ele>560</ele>
						<time>2022-06-18T09:14:10Z</time>
					</trkpt>
					<trkpt lat="45.649920" lon="4.385750">
						<ele>562</ele>
						<time>2022-06-18T09:15:24Z</time>
					</trkpt>
					<trkpt lat="45.649910" lon="4.385920">
						<ele>562</ele>
						<time>2022-06-18T09:15:40Z</time>
					</trkpt>
					<trkpt lat="45.650060" lon="4.386600">
						<ele>562</ele>
						<time>2022-06-18T09:16:46Z</time>
					</trkpt>
					<trkpt lat="45.650050" lon="4.386670">
						<ele>562</ele>
						<time>2022-06-18T09:16:53Z</time>
					</trkpt>
					<trkpt lat="45.649850" lon="4.386960">
						<ele>564</ele>
						<time>2022-06-18T09:17:31Z</time>
					</trkpt>
					<trkpt lat="45.649770" lon="4.387130">
						<ele>566</ele>
						<time>2022-06-18T09:17:50Z</time>
					</trkpt>
					<trkpt lat="45.649530" lon="4.387450">
						<ele>570</ele>
						<time>2022-06-18T09:18:34Z</time>
					</trkpt>
					<trkpt lat="45.649420" lon="4.387580">
						<ele>571</ele>
						<time>2022-06-18T09:18:53Z</time>
					</trkpt>
					<trkpt lat="45.649250" lon="4.387700">
						<ele>574</ele>
						<time>2022-06-18T09:19:18Z</time>
					</trkpt>
					<trkpt lat="45.649210" lon="4.387860">
						<ele>575</ele>
						<time>2022-06-18T09:19:34Z</time>
					</trkpt>
					<trkpt lat="45.649420" lon="4.387860">
						<ele>573</ele>
						<time>2022-06-18T09:20:02Z</time>
					</trkpt>
					<trkpt lat="45.649610" lon="4.387920">
						<ele>571</ele>
						<time>2022-06-18T09:20:28Z</time>
					</trkpt>
					<trkpt lat="45.649750" lon="4.388090">
						<ele>571</ele>
						<time>2022-06-18T09:20:52Z</time>
					</trkpt>
					<trkpt lat="45.650110" lon="4.388650">
						<ele>571</ele>
						<time>2022-06-18T09:22:03Z</time>
					</trkpt>
					<trkpt lat="45.650360" lon="4.389020">
						<ele>571</ele>
						<time>2022-06-18T09:22:51Z</time>
					</trkpt>
					<trkpt lat="45.650580" lon="4.389270">
						<ele>570</ele>
						<time>2022-06-18T09:23:29Z</time>
					</trkpt>
					<trkpt lat="45.650910" lon="4.389480">
						<ele>570</ele>
						<time>2022-06-18T09:24:17Z</time>
					</trkpt>
					<trkpt lat="45.651340" lon="4.389840">
						<ele>572</ele>
						<time>2022-06-18T09:25:24Z</time>
					</trkpt>
					<trkpt lat="45.651460" lon="4.389960">
						<ele>572</ele>
						<time>2022-06-18T09:25:43Z</time>
					</trkpt>
					<trkpt lat="45.651840" lon="4.390520">
						<ele>573</ele>
						<time>2022-06-18T09:26:56Z</time>
					</trkpt>
					<trkpt lat="45.652180" lon="4.391100">
						<ele>574</ele>
						<time>2022-06-18T09:28:07Z</time>
					</trkpt>
					<trkpt lat="45.652330" lon="4.391330">
						<ele>574</ele>
						<time>2022-06-18T09:28:36Z</time>
					</trkpt>
					<trkpt lat="45.652570" lon="4.391600">
						<ele>574</ele>
						<time>2022-06-18T09:29:17Z</time>
					</trkpt>
					<trkpt lat="45.652650" lon="4.391700">
						<ele>574</ele>
						<time>2022-06-18T09:29:31Z</time>
					</trkpt>
					<trkpt lat="45.652980" lon="4.392010">
						<ele>577</ele>
						<time>2022-06-18T09:30:23Z</time>
					</trkpt>
					<trkpt lat="45.653620" lon="4.392530">
						<ele>576</ele>
						<time>2022-06-18T09:32:02Z</time>
					</trkpt>
					<trkpt lat="45.653690" lon="4.392640">
						<ele>576</ele>
						<time>2022-06-18T09:32:16Z</time>
					</trkpt>
					<trkpt lat="45.653740" lon="4.392860">
						<ele>576</ele>
						<time>2022-06-18T09:32:37Z</time>
					</trkpt>
					<trkpt lat="45.653790" lon="4.393360">
						<ele>577</ele>
						<time>2022-06-18T09:33:24Z</time>
					</trkpt>
					<trkpt lat="45.653830" lon="4.393530">
						<ele>578</ele>
						<time>2022-06-18T09:33:41Z</time>
					</trkpt>
					<trkpt lat="45.653940" lon="4.393750">
						<ele>579</ele>
						<time>2022-06-18T09:34:06Z</time>
					</trkpt>
					<trkpt lat="45.654190" lon="4.394040">
						<ele>582</ele>
						<time>2022-06-18T09:34:49Z</time>
					</trkpt>
					<trkpt lat="45.654290" lon="4.394200">
						<ele>583</ele>
						<time>2022-06-18T09:35:09Z</time>
					</trkpt>
					<trkpt lat="45.654820" lon="4.395280">
						<ele>591</ele>
						<time>2022-06-18T09:37:12Z</time>
					</trkpt>
					<trkpt lat="45.655070" lon="4.395960">
						<ele>592</ele>
						<time>2022-06-18T09:38:24Z</time>
					</trkpt>
					<trkpt lat="45.655700" lon="4.397520">
						<ele>594</ele>
						<time>2022-06-18T09:41:12Z</time>
					</trkpt>
					<trkpt lat="45.655810" lon="4.397900">
						<ele>594</ele>
						<time>2022-06-18T09:41:50Z</time>
					</trkpt>
					<trkpt lat="45.656270" lon="4.399150">
						<ele>592</ele>
						<time>2022-06-18T09:44:02Z</time>
					</trkpt>
					<trkpt lat="45.656360" lon="4.399350">
						<ele>593</ele>
						<time>2022-06-18T09:44:24Z</time>
					</trkpt>
					<trkpt lat="45.657510" lon="4.398090">
						<ele>581</ele>
						<time>2022-06-18T09:47:38Z</time>
					</trkpt>
					<trkpt lat="45.657810" lon="4.397760">
						<ele>577</ele>
						<time>2022-06-18T09:48:28Z</time>
					</trkpt>
					<trkpt lat="45.658080" lon="4.397400">
						<ele>573</ele>
						<time>2022-06-18T09:49:17Z</time>
					</trkpt>
					<trkpt lat="45.658300" lon="4.397050">
						<ele>568</ele>
						<time>2022-06-18T09:50:01Z</time>
					</trkpt>
					<trkpt lat="45.658350" lon="4.396840">
						<ele>566</ele>
						<time>2022-06-18T09:50:22Z</time>
					</trkpt>
					<trkpt lat="45.658340" lon="4.396570">
						<ele>564</ele>
						<time>2022-06-18T09:50:47Z</time>
					</trkpt>
					<trkpt lat="45.658300" lon="4.396270">
						<ele>561</ele>
						<time>2022-06-18T09:51:16Z</time>
					</trkpt>
					<trkpt lat="45.658140" lon="4.394660">
						<ele>546</ele>
						<time>2022-06-18T09:53:47Z</time>
					</trkpt>
					<trkpt lat="45.658090" lon="4.394270">
						<ele>543</ele>
						<time>2022-06-18T09:54:24Z</time>
					</trkpt>
					<trkpt lat="45.658170" lon="4.394270">
						<ele>543</ele>
						<time>2022-06-18T09:54:35Z</time>
					</trkpt>
					<trkpt lat="45.658390" lon="4.394220">
						<ele>541</ele>
						<time>2022-06-18T09:55:05Z</time>
					</trkpt>
					<trkpt lat="45.658790" lon="4.394210">
						<ele>539</ele>
						<time>2022-06-18T09:55:58Z</time>
					</trkpt>
					<trkpt lat="45.659090" lon="4.392880">
						<ele>528</ele>
						<time>2022-06-18T09:58:08Z</time>
					</trkpt>
					<trkpt lat="45.659240" lon="4.392570">
						<ele>524</ele>
						<time>2022-06-18T09:58:44Z</time>
					</trkpt>
					<trkpt lat="45.659340" lon="4.392030">
						<ele>520</ele>
						<time>2022-06-18T09:59:36Z</time>
					</trkpt>
					<trkpt lat="45.659350" lon="4.391270">
						<ele>514</ele>
						<time>2022-06-18T10:00:47Z</time>
					</trkpt>
					<trkpt lat="45.659200" lon="4.390720">
						<ele>511</ele>
						<time>2022-06-18T10:01:42Z</time>
					</trkpt>
					<trkpt lat="45.658790" lon="4.389440">
						<ele>503</ele>
						<time>2022-06-18T10:03:53Z</time>
					</trkpt>
					<trkpt lat="45.658880" lon="4.388740">
						<ele>501</ele>
						<time>2022-06-18T10:04:59Z</time>
					</trkpt>
					<trkpt lat="45.658940" lon="4.388680">
						<ele>501</ele>
						<time>2022-06-18T10:05:09Z</time>
					</trkpt>
					<trkpt lat="45.659310" lon="4.388590">
						<ele>498</ele>
						<time>2022-06-18T10:05:59Z</time>
					</trkpt>
					<trkpt lat="45.659700" lon="4.388330">
						<ele>495</ele>
						<time>2022-06-18T10:06:57Z</time>
					</trkpt>
					<trkpt lat="45.659190" lon="4.387980">
						<ele>501</ele>
						<time>2022-06-18T10:08:12Z</time>
					</trkpt>
					<trkpt lat="45.658640" lon="4.387490">
						<ele>507</ele>
						<time>2022-06-18T10:09:39Z</time>
					</trkpt>
					<trkpt lat="45.658880" lon="4.387050">
						<ele>505</ele>
						<time>2022-06-18T10:10:31Z</time>
					</trkpt>
					<trkpt lat="45.658910" lon="4.386680">
						<ele>504</ele>
						<time>2022-06-18T10:11:05Z</time>
					</trkpt>
					<trkpt lat="45.658790" lon="4.385430">
						<ele>501</ele>
						<time>2022-06-18T10:13:03Z</time>
					</trkpt>
					<trkpt lat="45.658670" lon="4.384550">
						<ele>499</ele>
						<time>2022-06-18T10:14:27Z</time>
					</trkpt>
					<trkpt lat="45.658400" lon="4.384700">
						<ele>504</ele>
						<time>2022-06-18T10:15:05Z</time>
					</trkpt>
					<trkpt lat="45.658310" lon="4.384650">
						<ele>505</ele>
						<time>2022-06-18T10:15:18Z</time>
					</trkpt>
					<trkpt lat="45.658060" lon="4.384450">
						<ele>509</ele>
						<time>2022-06-18T10:15:56Z</time>
					</trkpt>
					<trkpt lat="45.657760" lon="4.384080">
						<ele>513</ele>
						<time>2022-06-18T10:16:49Z</time>
					</trkpt>
					<trkpt lat="45.657460" lon="4.383770">
						<ele>517</ele>
						<time>2022-06-18T10:17:39Z</time>
					</trkpt>
					<trkpt lat="45.657300" lon="4.383440">
						<ele>519</ele>
						<time>2022-06-18T10:18:16Z</time>
					</trkpt>
					<trkpt lat="45.657070" lon="4.383090">
						<ele>522</ele>
						<time>2022-06-18T10:19:01Z</time>
					</trkpt>
					<trkpt lat="45.656720" lon="4.383180">
						<ele>530</ele>
						<time>2022-06-18T10:19:48Z</time>
					</trkpt>
					<trkpt lat="45.656620" lon="4.382740">
						<ele>531</ele>
						<time>2022-06-18T10:20:32Z</time>
					</trkpt>
					<trkpt lat="45.656420" lon="4.382110">
						<ele>535</ele>
						<time>2022-06-18T10:21:36Z</time>
					</trkpt>
					<trkpt lat="45.656220" lon="4.381560">
						<ele>540</ele>
						<time>2022-06-18T10:22:34Z</time>
					</trkpt>
					<trkpt lat="45.656050" lon="4.381160">
						<ele>544</ele>
						<time>2022-06-18T10:23:18Z</time>
					</trkpt>
					<trkpt lat="45.655900" lon="4.380920">
						<ele>548</ele>
						<time>2022-06-18T10:23:48Z</time>
					</trkpt>
					<trkpt lat="45.655760" lon="4.380800">
						<ele>551</ele>
						<time>2022-06-18T10:24:09Z</time>
					</trkpt>
					<trkpt lat="45.654700" lon="4.380050">
						<ele>563</ele>
						<time>2022-06-18T10:26:47Z</time>
					</trkpt>
					<trkpt lat="45.654410" lon="4.379740">
						<ele>565</ele>
						<time>2022-06-18T10:27:36Z</time>
					</trkpt>
					<trkpt lat="45.653490" lon="4.379110">
						<ele>566</ele>
						<time>2022-06-18T10:29:52Z</time>
					</trkpt>
					</trkseg>
				</trk>
			</gpx>